Nearby METAR Reports

 

KAUS - Austin, Texas, USA
Distance from station: WNW 16mi, 26km
Updated: Tue, 04-Oct-2022 2:53pm CDT
Partly cloudy
Partly cloudy
 Wind from calm
Wind: Calm
Temperature: 88°F , 31°C
Dew Point: 45°F , 7°C
Humidity: 22%
Barometer: 30.02 inHg , 1016.6 hPa
Clouds: Partly cloudy
Visibility: 10 miles , 16 km
Cloud details: Partly cloudy 25000 ft
2022/10/04 19:53 KAUS 041953Z 00000KT 10SM SCT250 31/07 A3002 RMK AO2 SLP156 T03060072
KEDC - Austin Exec, Texas, USA
Distance from station: NNW 21mi, 34km
Updated: Tue, 04-Oct-2022 3:15pm CDT
Clear
Clear
 Wind from calm
Wind: Calm
Temperature: 90°F , 32°C
Dew Point: 39°F , 4°C
Humidity: 17%
Barometer: 30.00 inHg , 1015.9 hPa
Clouds: Clear
Visibility: 10 miles , 16 km
2022/10/04 20:15 KEDC 042015Z AUTO 00000KT 10SM CLR 32/04 A3000 RMK AO2
 
KATT - Austin/Mabry, Texas, USA
Distance from station: NW 25mi, 39km
Updated: Tue, 04-Oct-2022 2:51pm CDT
Clear
Clear
 Wind from varies
Wind: varies 5 mph , 7 km/h
Temperature: 90°F , 32°C
Dew Point: 43°F , 6°C
Humidity: 20%
Barometer: 30.04 inHg , 1017.3 hPa
Clouds: Clear
Visibility: 10 miles , 16 km
2022/10/04 19:51 KATT 041951Z AUTO VRB04KT 10SM CLR 32/06 A3004 RMK AO2 SLP159 T03220056
KGYB - Giddings-Lee, Texas, USA
Distance from station: E 27mi, 43km
Updated: Tue, 04-Oct-2022 3:15pm CDT
Haze, Clear
Haze, Clear
 Wind from calm
Wind: Calm
Temperature: 88°F , 31°C
Dew Point: 46°F , 8°C
Humidity: 24%
Barometer: 30.02 inHg , 1016.6 hPa
Summary: Haze
Clouds: Clear
Visibility: 3 miles , 5 km
2022/10/04 20:15 KGYB 042015Z AUTO 00000KT 3SM HZ CLR 31/08 A3002 RMK AO2 T03090078
 
KHYI - San Marcos, Texas, USA
Distance from station: WSW 31mi, 49km
Updated: Tue, 04-Oct-2022 2:56pm CDT
Clear
Clear
 Wind from SSE
Wind: SSE 8 mph , 13 km/h
Temperature: 86°F , 30°C
Dew Point: 43°F , 6°C
Humidity: 22%
Barometer: 30.06 inHg , 1017.9 hPa
Clouds: Clear
Visibility: 10 miles , 16 km
2022/10/04 19:56 KHYI 041956Z 16007KT 10SM CLR 30/06 A3006 RMK AO2 SLPNO T03000060 $
K3T5 - La Grange, Texas, USA
Distance from station: ESE 32mi, 52km
Updated: Thu, 22-Sep-2022 11:55am CDT
NOT Current

 
2022/09/22 16:55 K3T5 221655Z AUTO RMK AO2 PWINO PNO TSNO
 
KT20 - Gonzales Muni, Texas, USA
Distance from station: S 41mi, 67km
Updated: Tue, 04-Oct-2022 3:15pm CDT
Clear
Clear
 Wind from WNW
Wind: WNW 6 mph , 9 km/h
Temperature: 90°F , 32°C
Dew Point: 46°F , 8°C
Humidity: 22%
Barometer: 30.01 inHg , 1016.3 hPa
Clouds: Clear
Visibility: 10 miles , 16 km
2022/10/04 20:15 KT20 042015Z AUTO 29005KT 10SM CLR 32/08 A3001 RMK AO2 T03230080
KRYW - Lago Vista, Texas, USA
Distance from station: NW 42mi, 67km
Updated: Tue, 04-Oct-2022 3:15pm CDT

 Wind from calm
Wind: Calm
Temperature: 91°F , 33°C
Dew Point: 41°F , 5°C
Humidity: 17%
Barometer: 30.04 inHg , 1017.3 hPa
Visibility: 10 miles , 16 km
2022/10/04 20:15 KRYW 042015Z AUTO 00000KT 10SM 33/05 A3004 RMK AO2 T03290050
 
KGTU - Georgetown, Texas, USA
Distance from station: NNW 42mi, 68km
Updated: Tue, 04-Oct-2022 2:56pm CDT
Clear
Clear
 Wind from varies
Wind: varies 7 mph , 11 km/h
Temperature: 88°F , 31°C
Dew Point: 45°F , 7°C
Humidity: 22%
Barometer: 30.05 inHg , 1017.6 hPa
Clouds: Clear
Visibility: 10 miles , 16 km
2022/10/04 19:56 KGTU 041956Z VRB06KT 10SM CLR 31/07 A3005 RMK AO2 SLP172 T03060067
KBAZ - New Braunfels, Texas, USA
Distance from station: SW 46mi, 74km
Updated: Tue, 04-Oct-2022 2:51pm CDT
Clear
Clear
 Wind from S
Wind: S 8 mph , 13 km/h
Temperature: 88°F , 31°C
Dew Point: 46°F , 8°C
Humidity: 24%
Barometer: 30.02 inHg , 1016.6 hPa
Clouds: Clear
Visibility: 10 miles , 16 km
2022/10/04 19:51 KBAZ 041951Z 17007KT 10SM CLR 31/08 A3002 RMK AO2 SLP157 T03060078